createdAt,value
2018-06-02T00:06:02.085Z,3.33
2018-06-02T00:17:03.843Z,3.33
2018-06-02T00:28:01.163Z,3.32
2018-06-02T00:39:05.211Z,3.32
2018-06-02T00:50:03.549Z,3.32
2018-06-02T01:01:04.162Z,3.32
2018-06-02T01:12:03.464Z,3.31
2018-06-02T01:23:02.499Z,3.31
2018-06-02T01:34:04.702Z,3.31
2018-06-02T01:45:01.692Z,3.31
2018-06-02T01:56:01.957Z,3.31
2018-06-02T02:07:00.219Z,3.30
2018-06-02T02:18:00.614Z,3.30
2018-06-02T02:28:59.219Z,3.30
2018-06-02T02:39:59.844Z,3.30
2018-06-02T02:50:59.558Z,3.30
2018-06-02T03:01:58.318Z,3.29
2018-06-02T03:12:58.616Z,3.29
2018-06-02T03:23:59.270Z,3.29
2018-06-02T03:35:04.090Z,3.29
2018-06-02T03:46:07.254Z,3.29
2018-06-02T03:57:06.792Z,3.29
2018-06-02T04:08:08.224Z,3.29
2018-06-02T04:19:12.905Z,3.30
2018-06-02T04:30:15.877Z,3.30
2018-06-02T04:41:17.265Z,3.30
2018-06-02T04:52:14.100Z,3.32
2018-06-02T05:03:18.984Z,3.33
2018-06-02T05:14:23.378Z,3.34
2018-06-02T05:25:24.285Z,3.36
2018-06-02T05:36:22.977Z,3.36
2018-06-02T05:47:21.991Z,3.36
2018-06-02T05:58:26.976Z,3.36
2018-06-02T06:09:26.731Z,3.37
2018-06-02T06:20:28.976Z,3.38
2018-06-02T06:31:31.808Z,3.39
2018-06-02T06:42:37.358Z,3.40
2018-06-02T06:53:36.399Z,3.42
2018-06-02T07:04:40.171Z,3.44
2018-06-02T07:15:39.779Z,3.46
2018-06-02T07:26:40.730Z,3.41
2018-06-02T07:37:31.880Z,3.40
2018-06-02T07:48:28.854Z,3.42
2018-06-02T07:59:22.921Z,3.40
2018-06-02T08:10:17.062Z,3.40
2018-06-02T08:21:15.119Z,3.44
2018-06-02T08:32:13.347Z,3.44
2018-06-02T08:43:10.804Z,3.45
2018-06-02T08:54:06.711Z,3.43
2018-06-02T09:05:03.920Z,3.42
2018-06-02T09:16:03.164Z,3.42
2018-06-02T09:27:03.137Z,3.41
2018-06-02T09:38:07.570Z,3.41
2018-06-02T09:49:12.094Z,3.41
2018-06-02T10:00:11.101Z,3.40
2018-06-02T10:11:07.225Z,3.40
2018-06-02T10:22:06.967Z,3.42
2018-06-02T10:33:08.261Z,3.41
2018-06-02T10:44:06.478Z,3.40
2018-06-02T10:55:02.496Z,3.40
2018-06-02T11:06:00.105Z,3.42
2018-06-02T11:16:43.025Z,3.41
2018-06-02T11:27:28.102Z,3.41
2018-06-02T11:38:10.301Z,3.40
2018-06-02T11:49:09.746Z,3.40
2018-06-02T12:00:10.532Z,3.40
2018-06-02T12:11:14.439Z,3.41
2018-06-02T12:22:13.626Z,3.41
2018-06-02T12:33:18.575Z,3.40
2018-06-02T12:44:23.778Z,3.40
2018-06-02T12:55:27.027Z,3.40
2018-06-02T13:06:31.425Z,3.40
2018-06-02T13:17:29.874Z,3.42
2018-06-02T13:28:33.895Z,3.41
2018-06-02T13:39:34.633Z,3.40
2018-06-02T13:50:34.391Z,3.40
2018-06-02T14:01:35.904Z,3.40
2018-06-02T14:12:38.040Z,3.43
2018-06-02T14:23:41.913Z,3.42
2018-06-02T14:34:40.286Z,3.42
2018-06-02T14:45:40.252Z,3.41
2018-06-02T14:56:41.504Z,3.41
2018-06-02T15:07:48.151Z,3.39
2018-06-02T15:18:43.598Z,3.42
2018-06-02T15:29:42.723Z,3.41
2018-06-02T15:40:40.568Z,3.41
2018-06-02T15:51:38.132Z,3.40
2018-06-02T16:02:36.295Z,3.40
2018-06-02T16:13:27.541Z,3.43
2018-06-02T16:24:07.748Z,3.42
2018-06-02T16:34:56.190Z,3.41
2018-06-02T16:45:50.049Z,3.40
2018-06-02T16:56:46.044Z,3.40
2018-06-02T17:07:45.026Z,3.42
2018-06-02T17:18:44.725Z,3.42
2018-06-02T17:29:39.823Z,3.41
2018-06-02T17:40:32.162Z,3.41
2018-06-02T17:51:22.905Z,3.41
2018-06-02T18:02:20.670Z,3.40
2018-06-02T18:13:22.824Z,3.40
2018-06-02T18:24:19.600Z,3.39
2018-06-02T18:35:18.165Z,3.39
2018-06-02T18:46:20.205Z,3.39
2018-06-02T18:57:16.154Z,3.39
2018-06-02T19:08:19.225Z,3.38
2018-06-02T19:19:15.179Z,3.38
2018-06-02T19:30:09.786Z,3.37
2018-06-02T19:41:07.696Z,3.37
2018-06-02T19:52:18.871Z,3.34
2018-06-02T20:03:15.690Z,3.36
2018-06-02T20:14:12.764Z,3.36
2018-06-02T20:25:09.664Z,3.36
2018-06-02T20:36:00.166Z,3.36
2018-06-02T20:46:56.038Z,3.35
2018-06-02T20:57:52.404Z,3.34
2018-06-02T21:08:47.540Z,3.34
2018-06-02T21:19:51.105Z,3.34
2018-06-02T21:30:52.982Z,3.34
2018-06-02T21:41:48.775Z,3.34
2018-06-02T21:52:52.368Z,3.34
2018-06-02T22:03:50.061Z,3.34
2018-06-02T22:14:45.079Z,3.34
2018-06-02T22:25:49.195Z,3.33
2018-06-02T22:36:48.818Z,3.33
2018-06-02T22:47:50.814Z,3.33
2018-06-02T22:58:50.855Z,3.33
2018-06-02T23:09:52.532Z,3.33
2018-06-02T23:20:55.682Z,3.33
2018-06-02T23:31:55.391Z,3.33
2018-06-02T23:42:55.120Z,3.32
2018-06-02T23:53:54.233Z,3.32
